Time;durP1;ratioP1;P1;durP2;ratioP2;P2;SDS_P1;SDS_P2;PMS_P1;PMS_P2;Temp;Humidity;BMP_temperature;BMP_pressure;BME280_temperature;BME280_humidity;BME280_pressure;Samples;Min_cycle;Max_cycle;Signal;HPM_P1;HPM_P2
2023/09/13 00:01:41;;;;;;;2.85;0.30;;;;;;;15.38;54.38;101303.81;5038052;28;20033;-71
2023/09/13 00:04:07;;;;;;;3.38;0.50;;;;;;;15.13;54.97;101297.19;5019820;28;20087;-71
2023/09/13 00:06:32;;;;;;;3.65;0.50;;;;;;;15.40;53.97;101296.69;5019327;28;20650;-70
2023/09/13 00:08:59;;;;;;;5.28;1.10;;;;;;;15.25;54.50;101290.44;5038993;28;20102;-72
2023/09/13 00:11:24;;;;;;;7.50;1.30;;;;;;;15.07;55.18;101280.84;5003293;28;20574;-73
2023/09/13 00:13:50;;;;;;;2.08;0.70;;;;;;;15.17;54.91;101290.81;5022119;28;20132;-70
2023/09/13 00:16:15;;;;;;;11.55;0.50;;;;;;;15.14;54.73;101292.75;5019477;28;20032;-70
2023/09/13 00:18:41;;;;;;;3.83;0.82;;;;;;;15.06;55.03;101287.91;5014015;28;20568;-69
2023/09/13 00:21:09;;;;;;;7.10;0.57;;;;;;;15.18;54.76;101287.25;5022084;28;20559;-70
2023/09/13 00:23:34;;;;;;;6.95;1.10;;;;;;;15.14;55.00;101277.81;5022563;28;20041;-70
2023/09/13 00:26:00;;;;;;;3.08;0.57;;;;;;;15.35;54.52;101282.91;5020330;28;20075;-69
2023/09/13 00:28:25;;;;;;;7.30;0.52;;;;;;;15.37;54.09;101275.75;5018746;28;20498;-70
2023/09/13 00:30:51;;;;;;;2.90;0.50;;;;;;;15.29;54.20;101263.00;5019714;28;20032;-70
2023/09/13 00:33:16;;;;;;;6.80;0.70;;;;;;;15.20;54.55;101263.47;5019494;28;20061;-66
2023/09/13 00:35:42;;;;;;;5.60;0.60;;;;;;;15.31;53.79;101262.94;5024543;28;20041;-64
2023/09/13 00:38:07;;;;;;;4.10;0.50;;;;;;;15.18;54.35;101265.34;5022886;28;20057;-63
2023/09/13 00:40:33;;;;;;;4.60;0.75;;;;;;;14.98;54.78;101261.13;5026362;28;20497;-65
2023/09/13 00:42:59;;;;;;;5.35;0.60;;;;;;;14.98;54.88;101259.34;5041152;28;20468;-68
2023/09/13 00:45:25;;;;;;;4.95;0.68;;;;;;;15.01;54.54;101260.13;5026328;28;20028;-70
2023/09/13 00:47:51;;;;;;;12.18;0.65;;;;;;;14.92;55.33;101262.28;5024216;28;20297;-70
2023/09/13 00:50:17;;;;;;;3.03;0.65;;;;;;;14.86;55.06;101269.69;5024851;28;20428;-71
2023/09/13 00:52:45;;;;;;;2.90;0.70;;;;;;;14.87;54.66;101272.22;5023460;28;20052;-70
2023/09/13 00:55:14;;;;;;;3.38;0.63;;;;;;;14.86;54.80;101272.31;5036363;28;20045;-70
2023/09/13 00:57:39;;;;;;;4.18;0.50;;;;;;;14.93;54.74;101271.06;5025802;28;20330;-70
2023/09/13 01:00:11;;;;;;;4.05;0.57;;;;;;;15.04;54.45;101266.06;5021476;28;20040;-70
2023/09/13 01:02:39;;;;;;;5.00;0.85;;;;;;;15.07;54.32;101272.97;5023736;28;20049;-70
2023/09/13 01:05:11;;;;;;;2.65;0.40;;;;;;;14.85;55.16;101278.50;5025031;28;20075;-70
2023/09/13 01:07:40;;;;;;;9.57;0.40;;;;;;;15.12;54.21;101286.72;5028098;28;20121;-70
2023/09/13 01:10:07;;;;;;;1.83;0.50;;;;;;;15.18;53.91;101287.25;5022041;28;20037;-70
2023/09/13 01:12:33;;;;;;;5.57;0.50;;;;;;;15.00;54.61;101287.38;5026681;28;20056;-69
2023/09/13 01:14:59;;;;;;;5.38;0.40;;;;;;;15.04;54.71;101279.25;5003726;28;20044;-69
2023/09/13 01:17:38;;;;;;;6.18;0.63;;;;;;;15.00;54.59;101275.06;5027325;28;20524;-69
2023/09/13 01:20:24;;;;;;;3.53;0.65;;;;;;;15.03;54.65;101285.41;5020430;28;20017;-68
2023/09/13 01:22:58;;;;;;;2.88;0.50;;;;;;;15.04;54.56;101284.50;5023381;28;20033;-70
2023/09/13 01:26:01;;;;;;;3.72;0.50;;;;;;;15.05;54.21;101291.47;5025947;28;20062;-69
2023/09/13 01:28:34;;;;;;;5.10;0.75;;;;;;;15.13;54.04;101283.16;5021009;28;21254;-69
2023/09/13 01:31:04;;;;;;;4.32;0.50;;;;;;;15.08;54.02;101280.78;5021613;28;20511;-69
2023/09/13 01:33:29;;;;;;;7.28;0.60;;;;;;;15.05;54.19;101291.47;5024303;28;20045;-69
2023/09/13 01:35:55;;;;;;;4.80;0.30;;;;;;;15.17;53.72;101301.34;5004854;28;20029;-69
2023/09/13 01:38:20;;;;;;;4.10;0.40;;;;;;;15.03;53.95;101303.84;5020554;28;20057;-69
2023/09/13 01:40:49;;;;;;;3.33;0.57;;;;;;;15.05;53.65;101301.13;5037321;28;20082;-70
2023/09/13 01:43:15;;;;;;;4.18;0.30;;;;;;;14.83;54.41;101296.13;5020351;28;20088;-70
2023/09/13 01:45:41;;;;;;;9.38;1.90;;;;;;;14.82;54.46;101302.34;5026595;28;20040;-70
2023/09/13 01:48:10;;;;;;;6.57;0.55;;;;;;;15.00;53.60;101304.00;5019131;28;20045;-70
2023/09/13 01:50:37;;;;;;;7.18;1.48;;;;;;;14.70;54.62;101304.66;5027631;28;20456;-70
2023/09/13 01:53:03;;;;;;;6.50;0.90;;;;;;;15.01;54.03;101305.69;5002277;28;20128;-72
2023/09/13 01:55:29;;;;;;;9.35;0.55;;;;;;;14.84;54.01;101305.75;5026701;28;20639;-71
2023/09/13 01:57:55;;;;;;;4.15;0.73;;;;;;;15.00;53.63;101309.28;5040836;28;20044;-70
2023/09/13 02:00:20;;;;;;;3.13;0.82;;;;;;;15.02;53.54;101304.78;5026351;28;20786;-70
2023/09/13 02:02:46;;;;;;;11.45;0.60;;;;;;;15.03;53.61;101301.22;5021265;28;20072;-71
2023/09/13 02:05:11;;;;;;;5.32;0.73;;;;;;;15.03;53.50;101305.63;5035652;28;20112;-70
2023/09/13 02:07:37;;;;;;;5.25;0.73;;;;;;;15.04;53.55;101304.72;5039054;28;20608;-70
2023/09/13 02:10:03;;;;;;;5.35;0.40;;;;;;;14.91;53.92;101301.88;5018884;28;20175;-70
2023/09/13 02:12:29;;;;;;;8.23;1.67;;;;;;;14.94;53.91;101301.69;5004069;28;20036;-70
2023/09/13 02:14:54;;;;;;;10.15;0.68;;;;;;;14.80;54.18;101306.81;5020247;28;20074;-70
2023/09/13 02:17:20;;;;;;;7.95;0.70;;;;;;;15.02;53.55;101302.16;5020663;28;20095;-70
2023/09/13 02:19:50;;;;;;;6.03;0.47;;;;;;;15.03;53.22;101298.59;5038558;28;20055;-70
2023/09/13 02:22:15;;;;;;;8.73;0.65;;;;;;;15.00;53.55;101303.16;5025037;28;20137;-70
2023/09/13 02:24:41;;;;;;;2.15;1.17;;;;;;;15.09;53.39;101308.78;5024655;28;20028;-70
2023/09/13 02:27:06;;;;;;;3.92;0.40;;;;;;;15.08;53.48;101312.38;5021476;28;21813;-70
2023/09/13 02:29:32;;;;;;;6.93;1.05;;;;;;;15.17;53.18;101316.31;5025535;28;20072;-70
2023/09/13 02:31:57;;;;;;;3.53;0.57;;;;;;;15.02;53.74;101327.63;5019284;28;20029;-71
2023/09/13 02:34:23;;;;;;;6.38;0.52;;;;;;;14.92;53.74;101327.25;5041893;28;20648;-70
2023/09/13 02:36:49;;;;;;;3.42;0.63;;;;;;;14.88;53.72;101325.69;5036964;28;20029;-67
2023/09/13 02:39:35;;;;;;;3.60;1.13;;;;;;;14.83;53.71;101333.81;5025133;28;20677;-70
2023/09/13 02:42:02;;;;;;;9.20;0.70;;;;;;;14.81;53.57;101337.47;5019960;28;20021;-69
2023/09/13 02:44:28;;;;;;;7.03;0.75;;;;;;;14.96;52.80;101341.94;5022911;28;20036;-70
2023/09/13 02:46:53;;;;;;;6.43;0.65;;;;;;;14.90;52.43;101344.88;5034444;28;20568;-68
2023/09/13 02:49:20;;;;;;;6.45;0.60;;;;;;;14.45;53.42;101343.63;5019947;28;20049;-69
2023/09/13 02:51:47;;;;;;;4.13;0.45;;;;;;;14.71;52.56;101347.59;5020862;28;20028;-68
2023/09/13 02:54:13;;;;;;;4.57;0.70;;;;;;;14.63;52.61;101352.38;5019796;28;20461;-68
2023/09/13 02:56:40;;;;;;;3.60;0.32;;;;;;;14.50;52.28;101352.13;5010179;28;20091;-69
2023/09/13 02:59:05;;;;;;;3.08;0.40;;;;;;;14.61;52.18;101343.72;5017411;28;20036;-69
2023/09/13 03:01:31;;;;;;;6.55;0.80;;;;;;;14.63;51.78;101340.09;5019868;28;20040;-69
2023/09/13 03:03:56;;;;;;;2.78;0.38;;;;;;;14.63;52.04;101342.72;5022535;28;20053;-70
2023/09/13 03:06:22;;;;;;;2.85;0.20;;;;;;;14.40;52.37;101341.19;5025151;28;20065;-70
2023/09/13 03:08:47;;;;;;;3.22;0.30;;;;;;;14.40;52.97;101340.34;5018881;28;20072;-71
2023/09/13 03:11:16;;;;;;;2.47;0.30;;;;;;;14.50;53.38;101339.84;5041260;28;20514;-70
2023/09/13 03:13:42;;;;;;;4.53;0.40;;;;;;;14.19;54.08;101337.84;5041955;28;21578;-68
2023/09/13 03:16:16;;;;;;;4.20;0.40;;;;;;;14.06;55.29;101336.72;5023285;28;20117;-70
2023/09/13 03:18:42;;;;;;;4.38;0.40;;;;;;;14.00;55.51;101344.88;5040072;28;20663;-70
2023/09/13 03:21:10;;;;;;;8.90;0.63;;;;;;;14.13;55.10;101343.38;5040821;28;20033;-69
2023/09/13 03:23:39;;;;;;;6.47;0.45;;;;;;;13.84;55.89;101342.97;5017998;28;20132;-68
2023/09/13 03:26:32;;;;;;;3.45;0.57;;;;;;;13.88;55.82;101338.44;5025036;28;20025;-68
2023/09/13 03:28:57;;;;;;;5.32;0.50;;;;;;;13.66;56.72;101339.41;5013714;28;20095;-70
2023/09/13 03:31:26;;;;;;;8.48;0.90;;;;;;;13.79;56.28;101342.34;5028639;28;20429;-72
2023/09/13 03:33:55;;;;;;;4.55;0.43;;;;;;;13.72;56.40;101338.28;5038220;28;20060;-69
2023/09/13 03:36:21;;;;;;;6.82;0.50;;;;;;;13.64;56.35;101338.63;5009071;28;20029;-70
2023/09/13 03:38:51;;;;;;;1.90;0.40;;;;;;;13.37;56.92;101338.06;5024761;28;20061;-68
2023/09/13 03:41:22;;;;;;;3.63;0.30;;;;;;;13.61;56.22;101340.56;5008029;28;20111;-68
2023/09/13 03:43:49;;;;;;;1.17;0.20;;;;;;;13.34;56.61;101340.84;5008422;28;20046;-68
2023/09/13 03:46:15;;;;;;;6.03;0.77;;;;;;;13.41;56.48;101344.91;5018411;28;20033;-68
2023/09/13 03:48:44;;;;;;;5.97;0.60;;;;;;;13.35;57.54;101350.41;5023106;28;20654;-68
2023/09/13 03:51:12;;;;;;;4.22;0.70;;;;;;;13.63;56.64;101343.94;5022003;28;20875;-70
2023/09/13 03:53:38;;;;;;;1.98;0.68;;;;;;;13.61;57.33;101345.81;5016720;28;20117;-70
2023/09/13 03:56:05;;;;;;;11.70;0.43;;;;;;;13.65;57.00;101350.84;5003317;28;20043;-68
2023/09/13 03:58:35;;;;;;;6.10;0.47;;;;;;;13.66;57.02;101343.81;5018059;28;20069;-68
2023/09/13 04:01:02;;;;;;;4.82;0.55;;;;;;;13.61;56.81;101351.91;5025029;28;20128;-68
2023/09/13 04:03:28;;;;;;;5.28;0.40;;;;;;;13.49;57.61;101348.00;5019322;28;20049;-68
2023/09/13 04:05:54;;;;;;;3.47;0.80;;;;;;;13.25;57.76;101351.72;5023235;28;20025;-67
2023/09/13 04:08:19;;;;;;;2.95;0.77;;;;;;;13.30;57.29;101350.63;5017679;28;20098;-67
2023/09/13 04:10:44;;;;;;;4.68;0.80;;;;;;;13.35;56.72;101345.16;5046023;28;20064;-67
2023/09/13 04:13:10;;;;;;;6.93;0.95;;;;;;;13.18;57.17;101352.91;5025049;28;20047;-68
2023/09/13 04:15:36;;;;;;;4.95;0.30;;;;;;;13.25;57.00;101355.22;5022593;28;20069;-68
2023/09/13 04:18:03;;;;;;;4.13;0.60;;;;;;;12.90;57.61;101356.72;5035765;28;20037;-67
2023/09/13 04:20:29;;;;;;;3.20;0.40;;;;;;;12.98;57.57;101361.63;5027033;28;20029;-67
2023/09/13 04:22:55;;;;;;;7.75;1.13;;;;;;;13.21;56.38;101366.78;5028842;28;20048;-66
2023/09/13 04:25:21;;;;;;;3.38;0.40;;;;;;;13.04;56.17;101361.38;5037016;28;20496;-67
2023/09/13 04:27:48;;;;;;;8.88;1.42;;;;;;;12.88;56.38;101375.16;5040684;28;20103;-68
2023/09/13 04:30:15;;;;;;;7.55;1.00;;;;;;;12.83;55.94;101365.78;5022006;28;20098;-68
2023/09/13 04:32:42;;;;;;;6.13;0.85;;;;;;;12.60;56.16;101359.69;5007920;28;20263;-67
2023/09/13 04:35:08;;;;;;;9.73;0.85;;;;;;;12.85;55.64;101366.56;5021172;28;20173;-70
2023/09/13 04:37:34;;;;;;;3.05;0.65;;;;;;;12.69;55.85;101363.72;5022239;28;20101;-67
2023/09/13 04:40:05;;;;;;;8.57;0.68;;;;;;;12.42;55.91;101357.78;5020491;28;20116;-69
2023/09/13 04:42:41;;;;;;;8.77;0.40;;;;;;;12.41;55.69;101362.19;5038377;28;20034;-67
2023/09/13 04:45:07;;;;;;;1.88;0.40;;;;;;;12.57;54.75;101362.41;5021456;28;20533;-69
2023/09/13 04:47:32;;;;;;;3.88;0.47;;;;;;;12.50;54.84;101360.97;5037943;28;20029;-69
2023/09/13 04:49:58;;;;;;;5.40;0.40;;;;;;;12.74;54.18;101363.53;5039330;28;20562;-66
2023/09/13 04:52:24;;;;;;;5.97;0.50;;;;;;;12.36;55.09;101374.63;5020320;28;20040;-67
2023/09/13 04:54:49;;;;;;;4.22;0.32;;;;;;;12.54;54.20;101374.81;5029311;28;20063;-66
2023/09/13 04:57:15;;;;;;;1.83;0.32;;;;;;;12.76;53.66;101380.03;5025292;28;20039;-69
2023/09/13 04:59:43;;;;;;;7.47;1.02;;;;;;;12.87;52.70;101386.56;5019995;28;20033;-69
2023/09/13 05:02:12;;;;;;;7.40;0.82;;;;;;;12.44;53.48;101398.75;5026129;28;20037;-68
2023/09/13 05:04:39;;;;;;;7.60;0.97;;;;;;;12.72;51.86;101396.84;5025774;28;20662;-70
2023/09/13 05:07:05;;;;;;;7.65;0.40;;;;;;;12.89;51.43;101400.47;5018996;28;20048;-69
2023/09/13 05:09:31;;;;;;;3.40;0.47;;;;;;;12.75;51.27;101402.81;5022430;28;20680;-69
2023/09/13 05:11:57;;;;;;;3.65;0.82;;;;;;;12.85;50.93;101398.06;5023190;28;20047;-69
2023/09/13 05:14:22;;;;;;;4.07;1.10;;;;;;;12.86;50.62;101397.97;5035290;28;20095;-69
2023/09/13 05:16:48;;;;;;;6.05;0.70;;;;;;;12.66;50.90;101396.13;5027589;28;20120;-69
2023/09/13 05:19:14;;;;;;;7.55;0.70;;;;;;;12.80;50.68;101400.00;5019918;28;20509;-68
2023/09/13 05:21:39;;;;;;;3.85;0.43;;;;;;;12.87;50.69;101406.69;5022541;28;20036;-68
2023/09/13 05:24:05;;;;;;;6.00;0.50;;;;;;;13.04;50.65;101404.22;5019096;28;20036;-71
2023/09/13 05:26:30;;;;;;;8.75;1.05;;;;;;;12.93;51.01;101403.81;5027658;28;20105;-67
2023/09/13 05:28:56;;;;;;;6.53;1.15;;;;;;;12.80;51.36;101400.84;5037755;28;20034;-66
2023/09/13 05:31:21;;;;;;;7.57;0.57;;;;;;;12.84;51.18;101391.09;5025597;28;20039;-71
2023/09/13 05:33:47;;;;;;;3.63;0.98;;;;;;;12.85;51.19;101404.16;5022713;28;20502;-68
2023/09/13 05:36:13;;;;;;;4.85;0.50;;;;;;;13.06;51.38;101406.78;5020437;28;20466;-69
2023/09/13 05:38:40;;;;;;;2.22;0.30;;;;;;;13.01;51.28;101409.59;5020425;28;20037;-71
2023/09/13 05:41:09;;;;;;;3.03;0.52;;;;;;;12.55;52.13;101419.31;5028106;28;20150;-71
2023/09/13 05:43:36;;;;;;;6.18;0.52;;;;;;;12.94;50.84;101412.53;5022550;28;20462;-69
2023/09/13 05:46:02;;;;;;;4.53;0.47;;;;;;;13.12;50.55;101417.03;5024406;28;20462;-69
2023/09/13 05:48:28;;;;;;;4.03;0.30;;;;;;;12.89;50.53;101410.09;5018525;28;20037;-70
2023/09/13 05:50:53;;;;;;;4.38;0.70;;;;;;;12.92;50.25;101404.75;5030023;28;20033;-71
2023/09/13 05:53:19;;;;;;;3.13;0.45;;;;;;;13.19;49.41;101417.63;5024429;28;20041;-66
2023/09/13 05:55:46;;;;;;;1.25;0.20;;;;;;;13.42;49.12;101414.84;5020779;28;20090;-67
2023/09/13 05:58:11;;;;;;;9.30;0.80;;;;;;;13.28;50.27;101415.44;5036886;28;20044;-67
2023/09/13 06:00:37;;;;;;;6.10;0.60;;;;;;;13.52;49.76;101421.41;5020120;28;20095;-66
2023/09/13 06:03:03;;;;;;;7.32;0.82;;;;;;;13.43;50.55;101426.19;5021207;28;20045;-67
2023/09/13 06:05:29;;;;;;;4.28;0.98;;;;;;;13.70;49.87;101430.28;5024337;28;20037;-67
2023/09/13 06:07:55;;;;;;;4.68;0.65;;;;;;;13.48;50.67;101430.34;5039334;28;20517;-68
2023/09/13 06:10:20;;;;;;;5.68;0.40;;;;;;;13.53;50.84;101433.63;5035644;28;20045;-68
2023/09/13 06:12:46;;;;;;;12.02;0.50;;;;;;;13.69;50.75;101439.06;5021608;28;20041;-69
2023/09/13 06:15:11;;;;;;;13.98;0.73;;;;;;;13.61;51.13;101440.38;5021024;28;20784;-69
2023/09/13 06:17:37;;;;;;;5.90;0.60;;;;;;;13.52;51.68;101445.06;5019659;28;20045;-68
2023/09/13 06:20:04;;;;;;;5.72;0.22;;;;;;;13.58;51.30;101453.63;5022214;28;20036;-69
2023/09/13 06:22:32;;;;;;;6.15;0.60;;;;;;;13.86;50.68;101448.84;5022198;28;20722;-68
2023/09/13 06:24:58;;;;;;;3.55;0.50;;;;;;;13.79;51.03;101459.72;5043824;28;20045;-68
2023/09/13 06:27:24;;;;;;;7.80;0.50;;;;;;;13.63;51.59;101459.50;5019195;28;20748;-68
2023/09/13 06:29:50;;;;;;;5.20;0.40;;;;;;;13.81;51.20;101461.34;5025435;28;20033;-68
2023/09/13 06:32:15;;;;;;;5.00;0.45;;;;;;;13.60;52.03;101465.75;5018862;28;20041;-69
2023/09/13 06:34:41;;;;;;;1.80;0.38;;;;;;;13.91;50.89;101465.25;5019030;28;20041;-69
2023/09/13 06:37:06;;;;;;;5.22;0.80;;;;;;;13.81;51.17;101470.97;5023855;28;20039;-68
2023/09/13 06:39:32;;;;;;;8.63;0.65;;;;;;;13.61;51.73;101479.75;5022100;28;20584;-69
2023/09/13 06:41:57;;;;;;;6.03;1.20;;;;;;;14.14;50.04;101466.00;5022651;28;20116;-68
2023/09/13 06:44:23;;;;;;;8.30;1.13;;;;;;;14.06;50.71;101476.03;5019391;28;20060;-68
2023/09/13 06:46:48;;;;;;;10.13;0.47;;;;;;;13.91;51.23;101491.53;5020414;28;20064;-68
2023/09/13 06:49:14;;;;;;;9.80;0.50;;;;;;;13.36;52.86;101504.41;5018276;28;20142;-68
2023/09/13 06:51:39;;;;;;;6.97;0.55;;;;;;;12.91;55.91;101515.84;5022189;28;20029;-68
2023/09/13 06:54:07;;;;;;;6.18;0.80;;;;;;;12.52;58.02;101512.97;5017649;28;20099;-69
2023/09/13 06:56:32;;;;;;;8.07;1.35;;;;;;;12.16;60.31;101518.69;5015686;28;20794;-68
2023/09/13 06:58:58;;;;;;;10.23;1.13;;;;;;;12.01;60.33;101531.41;5023310;28;20227;-69
2023/09/13 07:01:24;;;;;;;7.75;0.50;;;;;;;11.60;61.80;101530.22;5020044;28;20068;-68
2023/09/13 07:03:49;;;;;;;11.57;1.27;;;;;;;11.80;61.51;101535.66;5018989;28;20053;-70
2023/09/13 07:06:14;;;;;;;7.50;2.08;;;;;;;11.60;61.45;101541.53;5022663;28;20068;-70
2023/09/13 07:08:40;;;;;;;17.27;2.65;;;;;;;11.58;61.93;101537.25;5016341;28;20036;-70
2023/09/13 07:11:05;;;;;;;12.32;1.20;;;;;;;11.65;62.15;101546.63;5023490;28;20028;-70
2023/09/13 07:13:31;;;;;;;6.18;0.95;;;;;;;11.40;62.74;101543.97;5016387;28;20139;-70
2023/09/13 07:15:56;;;;;;;7.45;0.77;;;;;;;11.48;62.43;101535.84;5022927;28;20035;-70
2023/09/13 07:18:23;;;;;;;4.30;1.13;;;;;;;11.36;62.21;101547.59;5018539;28;20270;-67
2023/09/13 07:20:48;;;;;;;8.02;1.48;;;;;;;11.65;61.66;101555.31;5021584;28;20062;-68
2023/09/13 07:23:14;;;;;;;9.27;3.33;;;;;;;11.82;60.94;101552.16;5022963;28;20475;-68
2023/09/13 07:25:39;;;;;;;8.73;0.73;;;;;;;11.79;60.56;101554.88;5019982;28;20056;-70
2023/09/13 07:28:05;;;;;;;3.75;0.77;;;;;;;12.14;59.72;101550.19;5038343;28;20045;-68
2023/09/13 07:30:30;;;;;;;8.68;1.00;;;;;;;12.07;59.62;101544.31;5017411;28;20406;-68
2023/09/13 07:32:56;;;;;;;10.77;1.02;;;;;;;11.93;60.08;101556.16;5020564;28;20051;-70
2023/09/13 07:35:22;;;;;;;5.78;0.90;;;;;;;12.27;59.19;101555.84;5017875;28;21217;-70
2023/09/13 07:37:47;;;;;;;4.65;0.82;;;;;;;12.32;58.68;101555.66;5019689;28;20052;-70
2023/09/13 07:40:13;;;;;;;10.00;0.70;;;;;;;12.36;58.29;101565.13;5017776;28;20037;-70
2023/09/13 07:42:39;;;;;;;6.82;0.88;;;;;;;12.32;57.63;101560.91;5017408;28;20835;-70
2023/09/13 07:45:05;;;;;;;7.15;0.75;;;;;;;12.42;57.85;101568.38;5021243;28;20068;-70
2023/09/13 07:47:31;;;;;;;6.65;0.50;;;;;;;12.10;59.32;101566.91;5003942;28;20546;-70
2023/09/13 07:50:00;;;;;;;9.23;0.73;;;;;;;11.96;60.85;101569.19;5023533;28;20041;-70
2023/09/13 07:52:26;;;;;;;6.10;0.70;;;;;;;12.21;61.29;101564.75;4996501;28;20041;-71
2023/09/13 07:54:52;;;;;;;11.02;0.93;;;;;;;12.22;61.05;101576.97;5035800;28;20183;-70
2023/09/13 07:57:18;;;;;;;7.63;0.50;;;;;;;12.22;60.69;101576.97;5017589;28;20045;-70
2023/09/13 07:59:44;;;;;;;9.63;1.15;;;;;;;11.95;61.95;101588.41;5018733;28;20120;-70
2023/09/13 08:02:09;;;;;;;7.07;1.08;;;;;;;12.28;60.80;101591.59;5018943;28;20040;-70
2023/09/13 08:04:35;;;;;;;9.48;0.80;;;;;;;12.29;61.51;101588.94;5020660;28;20045;-71
2023/09/13 08:07:01;;;;;;;9.18;1.20;;;;;;;12.52;61.01;101584.63;5022221;28;20116;-71
2023/09/13 08:09:27;;;;;;;9.90;0.45;;;;;;;12.48;60.35;101588.28;5017214;28;20093;-70
2023/09/13 08:11:52;;;;;;;5.45;0.98;;;;;;;12.42;59.86;101604.22;5018383;28;20043;-70
2023/09/13 08:14:19;;;;;;;8.63;1.00;;;;;;;12.69;58.46;101608.50;5020006;28;20041;-70
2023/09/13 08:16:44;;;;;;;5.18;1.15;;;;;;;12.71;58.52;101608.41;5018805;28;20036;-70
2023/09/13 08:19:10;;;;;;;8.13;0.73;;;;;;;12.59;58.87;101601.00;5020799;28;20056;-70
2023/09/13 08:21:36;;;;;;;7.35;1.13;;;;;;;12.65;58.27;101601.63;5018773;28;20057;-70
2023/09/13 08:24:03;;;;;;;10.00;0.85;;;;;;;12.90;57.36;101603.34;5020236;28;20051;-70
2023/09/13 08:26:30;;;;;;;6.85;0.85;;;;;;;13.17;56.66;101618.94;5018551;28;20241;-70
2023/09/13 08:28:56;;;;;;;8.23;0.20;;;;;;;13.30;56.70;101625.41;5017153;28;20041;-70
2023/09/13 08:31:24;;;;;;;4.38;0.52;;;;;;;13.32;56.59;101634.09;5020803;28;20052;-70
2023/09/13 08:33:50;;;;;;;5.43;0.88;;;;;;;13.38;56.44;101636.44;5019336;28;20451;-70
2023/09/13 08:36:17;;;;;;;9.07;0.75;;;;;;;13.59;56.06;101633.94;5035542;28;20664;-71
2023/09/13 08:38:42;;;;;;;9.75;0.88;;;;;;;13.81;55.94;101645.28;5016547;28;21547;-71
2023/09/13 08:41:08;;;;;;;10.32;0.80;;;;;;;14.12;55.45;101652.72;5023283;28;20021;-70
2023/09/13 08:43:36;;;;;;;5.18;0.82;;;;;;;14.22;55.03;101647.06;5013174;28;20553;-70
2023/09/13 08:46:03;;;;;;;4.97;0.50;;;;;;;14.18;54.96;101641.06;5026009;28;20021;-70
2023/09/13 08:48:29;;;;;;;8.25;0.60;;;;;;;14.11;55.02;101647.50;5018104;28;20057;-70
2023/09/13 08:50:54;;;;;;;10.57;0.60;;;;;;;14.47;53.90;101657.38;5020322;28;20097;-70
2023/09/13 08:53:22;;;;;;;5.05;0.38;;;;;;;14.37;54.07;101646.41;5019754;28;20049;-71
2023/09/13 08:55:48;;;;;;;8.30;1.30;;;;;;;14.27;54.57;101635.41;5036490;28;20041;-70
2023/09/13 08:58:14;;;;;;;6.88;0.98;;;;;;;14.71;53.02;101637.03;5022508;28;20080;-71
2023/09/13 09:00:41;;;;;;;18.25;1.83;;;;;;;14.58;52.44;101628.81;5023967;28;20036;-71
2023/09/13 09:03:10;;;;;;;6.68;0.70;;;;;;;14.83;52.23;101622.44;5022449;28;20144;-71
2023/09/13 09:05:37;;;;;;;4.35;0.60;;;;;;;14.68;52.25;101624.00;5019389;28;20132;-71
2023/09/13 09:08:04;;;;;;;6.28;0.47;;;;;;;15.29;51.20;101634.34;5028490;28;20043;-70
2023/09/13 09:10:31;;;;;;;9.77;1.52;;;;;;;16.14;47.44;101643.34;5020212;28;20032;-70
2023/09/13 09:12:58;;;;;;;6.22;0.73;;;;;;;15.97;47.58;101646.81;5024011;28;20106;-70
2023/09/13 09:15:24;;;;;;;2.92;0.30;;;;;;;16.24;47.19;101652.47;5025334;28;20087;-71
2023/09/13 09:17:52;;;;;;;3.47;0.50;;;;;;;16.51;45.02;101655.50;5019496;28;20136;-69
2023/09/13 09:20:27;;;;;;;10.95;0.80;;;;;;;17.12;44.09;101656.63;5022270;28;20041;-69
2023/09/13 09:22:57;;;;;;;7.35;1.30;;;;;;;17.06;43.91;101662.22;5020935;28;20536;-69
2023/09/13 09:25:24;;;;;;;5.05;0.60;;;;;;;17.10;43.07;101669.06;5023831;28;20162;-70
2023/09/13 09:27:49;;;;;;;6.05;0.65;;;;;;;16.56;42.67;101668.44;5019433;28;20048;-70
2023/09/13 09:30:15;;;;;;;5.80;0.40;;;;;;;16.87;41.76;101665.03;5043341;28;20060;-69
2023/09/13 09:32:41;;;;;;;7.03;0.70;;;;;;;16.60;41.38;101660.28;5019836;28;20169;-69
2023/09/13 09:35:08;;;;;;;2.60;0.73;;;;;;;17.06;40.36;101659.59;5005942;28;20562;-69
2023/09/13 09:37:35;;;;;;;4.47;0.75;;;;;;;17.62;39.82;101666.13;5020047;28;20076;-69
2023/09/13 09:40:01;;;;;;;2.65;0.75;;;;;;;18.13;37.88;101670.28;5024204;28;20115;-69
2023/09/13 09:42:29;;;;;;;4.13;0.60;;;;;;;17.98;37.18;101662.31;5020137;28;20032;-69
2023/09/13 09:44:55;;;;;;;3.45;0.30;;;;;;;17.22;38.94;101678.97;5021681;28;20029;-69
2023/09/13 09:47:21;;;;;;;3.47;0.63;;;;;;;16.92;40.26;101670.91;5005269;28;20071;-69
2023/09/13 09:49:47;;;;;;;1.58;0.43;;;;;;;17.09;40.29;101685.84;5021509;28;20047;-69
2023/09/13 09:52:16;;;;;;;3.03;0.50;;;;;;;17.41;40.39;101678.75;5023953;28;20033;-69
2023/09/13 09:54:50;;;;;;;6.47;0.75;;;;;;;17.24;40.38;101677.06;5017635;28;20048;-69
2023/09/13 09:57:22;;;;;;;2.72;0.35;;;;;;;16.83;41.81;101690.75;5022529;28;20546;-69
2023/09/13 09:59:49;;;;;;;3.55;0.43;;;;;;;17.15;40.13;101695.22;5023270;28;20434;-69
2023/09/13 10:02:15;;;;;;;4.90;0.38;;;;;;;17.54;40.27;101707.19;5042990;28;20060;-69
2023/09/13 10:04:50;;;;;;;6.25;1.48;;;;;;;17.59;40.32;101713.91;5019497;28;20083;-69
2023/09/13 10:07:16;;;;;;;1.33;0.20;;;;;;;16.90;41.66;101714.19;5026458;28;20037;-71
2023/09/13 10:09:46;;;;;;;2.20;0.47;;;;;;;16.90;40.81;101708.91;5018683;28;20466;-69
2023/09/13 10:12:12;;;;;;;3.92;1.00;;;;;;;17.10;41.28;101721.88;5024118;28;20517;-69
2023/09/13 10:14:43;;;;;;;4.72;0.60;;;;;;;16.77;41.97;101725.38;5021934;28;20516;-69
2023/09/13 10:17:09;;;;;;;10.50;2.10;;;;;;;16.41;43.53;101730.78;5023148;28;20333;-70
2023/09/13 10:19:35;;;;;;;4.35;1.33;;;;;;;15.71;45.76;101740.38;5020809;28;20107;-69
2023/09/13 10:22:02;;;;;;;6.05;0.70;;;;;;;15.17;48.48;101753.41;5022510;28;20136;-69
2023/09/13 10:24:38;;;;;;;11.85;1.08;;;;;;;15.06;48.97;101751.25;5040234;28;20210;-69
2023/09/13 10:27:08;;;;;;;4.40;0.45;;;;;;;15.22;48.18;101755.84;5019717;28;20026;-69
2023/09/13 10:29:55;;;;;;;7.35;0.70;;;;;;;15.35;47.21;101754.38;5020032;28;20041;-69
2023/09/13 10:32:26;;;;;;;5.63;0.77;;;;;;;15.53;46.20;101740.31;5020040;28;20048;-69
2023/09/13 10:34:58;;;;;;;5.88;0.65;;;;;;;15.77;45.38;101754.13;5019927;28;20056;-69
2023/09/13 10:37:42;;;;;;;6.90;0.88;;;;;;;15.66;45.25;101760.81;5021559;28;20423;-69
2023/09/13 10:40:23;;;;;;;10.15;1.30;;;;;;;15.66;44.87;101758.16;5022580;28;20033;-69
2023/09/13 10:42:49;;;;;;;3.30;0.40;;;;;;;16.04;43.74;101760.78;5018912;28;20041;-69
2023/09/13 10:45:18;;;;;;;6.70;1.10;;;;;;;15.65;44.59;101769.66;5022474;28;20060;-69
2023/09/13 10:47:47;;;;;;;4.88;0.30;;;;;;;15.39;44.30;101774.34;5022671;28;20574;-69
2023/09/13 10:50:15;;;;;;;0.88;0.17;;;;;;;15.47;44.60;101774.84;5022067;28;20047;-69
2023/09/13 10:52:43;;;;;;;4.93;0.52;;;;;;;15.53;44.53;101771.09;5019096;28;20087;-69
2023/09/13 10:55:11;;;;;;;2.33;0.68;;;;;;;15.34;43.81;101776.34;5027390;28;20033;-69
2023/09/13 10:57:40;;;;;;;2.50;0.63;;;;;;;15.33;44.09;101779.91;5020328;28;20060;-68
2023/09/13 11:00:12;;;;;;;7.53;0.40;;;;;;;15.30;44.36;101787.94;5021894;28;20112;-69
2023/09/13 11:02:46;;;;;;;3.90;0.45;;;;;;;15.44;44.07;101801.34;5034231;28;20077;-68
2023/09/13 11:05:13;;;;;;;4.95;0.30;;;;;;;15.44;43.77;101793.44;5023677;28;20045;-68
2023/09/13 11:07:47;;;;;;;3.40;0.52;;;;;;;15.70;43.04;101800.13;5019480;28;20677;-69
2023/09/13 11:10:17;;;;;;;2.67;0.40;;;;;;;15.57;41.17;101804.25;5025745;28;20473;-69
2023/09/13 11:12:48;;;;;;;5.43;0.60;;;;;;;15.70;39.90;101794.84;5017826;28;20130;-69
2023/09/13 11:15:14;;;;;;;2.22;0.60;;;;;;;15.77;39.04;101805.94;5022561;28;20292;-69
2023/09/13 11:17:41;;;;;;;1.90;0.50;;;;;;;16.22;39.39;101796.81;5019763;28;20139;-69
2023/09/13 11:20:32;;;;;;;4.30;1.00;;;;;;;16.63;37.00;101796.50;5002061;28;20072;-69
2023/09/13 11:23:05;;;;;;;0.93;0.25;;;;;;;16.76;36.62;101791.47;5020852;28;20076;-69
2023/09/13 11:25:38;;;;;;;7.00;0.75;;;;;;;17.05;36.46;101792.59;5041862;28;20037;-69